createdAt,value
2022-07-31T00:01:49.598Z,22.67
2022-07-31T00:04:21.494Z,22.68
2022-07-31T00:06:50.835Z,22.61
2022-07-31T00:09:52.541Z,22.50
2022-07-31T00:12:09.728Z,22.49
2022-07-31T00:14:39.323Z,22.48
2022-07-31T00:17:08.729Z,22.47
2022-07-31T00:19:41.633Z,22.30
2022-07-31T00:22:12.596Z,22.15
2022-07-31T00:24:42.103Z,22.07
2022-07-31T00:27:11.520Z,22.01
2022-07-31T00:29:41.179Z,21.98
2022-07-31T00:32:11.521Z,21.95
2022-07-31T00:34:43.456Z,21.98
2022-07-31T00:37:12.978Z,21.93
2022-07-31T00:39:42.292Z,21.84
2022-07-31T00:42:19.533Z,21.68
2022-07-31T00:44:49.153Z,21.56
2022-07-31T00:47:18.762Z,21.56
2022-07-31T00:49:56.366Z,21.58
2022-07-31T00:52:26.022Z,21.62
2022-07-31T00:54:55.458Z,21.61
2022-07-31T00:57:24.826Z,21.60
2022-07-31T00:59:54.142Z,21.64
2022-07-31T01:02:23.993Z,21.58
2022-07-31T01:04:55.914Z,21.52
2022-07-31T01:07:25.982Z,21.46
2022-07-31T01:09:56.472Z,21.29
2022-07-31T01:12:30.074Z,21.18
2022-07-31T01:15:01.664Z,21.08
2022-07-31T01:17:33.207Z,20.98
2022-07-31T01:20:05.801Z,20.90
2022-07-31T01:22:45.660Z,20.93
2022-07-31T01:25:19.891Z,20.88
2022-07-31T01:28:07.524Z,20.72
2022-07-31T01:30:42.293Z,20.61
2022-07-31T01:33:13.451Z,20.55
2022-07-31T01:35:44.922Z,20.50
2022-07-31T01:38:16.903Z,20.45
2022-07-31T01:40:47.572Z,20.46
2022-07-31T01:43:19.029Z,20.48
2022-07-31T01:45:53.983Z,20.45
2022-07-31T01:48:23.631Z,20.40
2022-07-31T01:50:55.607Z,20.36
2022-07-31T01:53:26.882Z,20.28
2022-07-31T01:56:02.735Z,20.24
2022-07-31T01:58:37.400Z,20.20
2022-07-31T02:01:15.766Z,20.16
2022-07-31T02:03:46.842Z,20.21
2022-07-31T02:06:21.670Z,20.18
2022-07-31T02:08:52.799Z,20.13
2022-07-31T02:11:23.139Z,20.11
2022-07-31T02:13:54.062Z,20.12
2022-07-31T02:16:27.544Z,20.09
2022-07-31T02:19:06.691Z,20.18
2022-07-31T02:21:37.421Z,20.14
2022-07-31T02:24:08.080Z,20.14
2022-07-31T02:26:38.039Z,20.15
2022-07-31T02:29:19.703Z,20.11
2022-07-31T02:32:02.917Z,20.10
2022-07-31T02:34:33.755Z,20.09
2022-07-31T02:37:03.890Z,20.08
2022-07-31T02:39:34.852Z,20.01
2022-07-31T02:42:06.411Z,20.03
2022-07-31T02:44:36.329Z,20.07
2022-07-31T02:47:09.110Z,20.08
2022-07-31T02:49:38.539Z,20.04
2022-07-31T02:52:08.525Z,20.07
2022-07-31T02:54:40.695Z,20.09
2022-07-31T02:57:10.735Z,20.21
2022-07-31T02:59:40.395Z,20.21
2022-07-31T03:02:12.564Z,20.06
2022-07-31T03:04:45.208Z,20.03
2022-07-31T03:07:14.914Z,20.09
2022-07-31T03:09:44.272Z,20.13
2022-07-31T03:12:32.253Z,20.18
2022-07-31T03:15:02.434Z,20.22
2022-07-31T03:17:40.769Z,20.22
2022-07-31T03:20:13.800Z,20.18
2022-07-31T03:22:43.366Z,20.08
2022-07-31T03:25:20.204Z,20.04
2022-07-31T03:27:55.053Z,20.13
2022-07-31T03:30:26.590Z,20.04
2022-07-31T03:33:03.397Z,20.07
2022-07-31T03:35:39.267Z,20.07
2022-07-31T03:38:39.713Z,20.13
2022-07-31T03:41:05.554Z,20.05
2022-07-31T03:43:47.286Z,20.05
2022-07-31T03:46:19.804Z,20.06
2022-07-31T03:48:53.102Z,20.14
2022-07-31T03:51:23.962Z,20.24
2022-07-31T03:53:54.062Z,20.21
2022-07-31T03:56:59.695Z,20.24
2022-07-31T03:59:39.875Z,20.19
2022-07-31T04:02:18.675Z,20.06
2022-07-31T04:04:54.650Z,20.07
2022-07-31T04:07:24.292Z,20.14
2022-07-31T04:09:54.141Z,20.22
2022-07-31T04:12:23.473Z,20.10
2022-07-31T04:14:53.368Z,20.07
2022-07-31T04:17:22.674Z,20.06
2022-07-31T04:19:54.656Z,20.12
2022-07-31T04:22:24.167Z,20.02
2022-07-31T04:24:53.546Z,19.93
2022-07-31T04:27:45.665Z,19.80
2022-07-31T04:30:17.589Z,19.82
2022-07-31T04:32:47.792Z,19.90
2022-07-31T04:35:24.172Z,20.00
2022-07-31T04:37:53.558Z,20.01
2022-07-31T04:40:26.374Z,19.94
2022-07-31T04:42:56.437Z,19.89
2022-07-31T04:45:25.771Z,19.92
2022-07-31T04:47:55.816Z,20.04
2022-07-31T04:50:27.714Z,20.21
2022-07-31T04:53:01.326Z,20.28
2022-07-31T04:55:36.214Z,20.26
2022-07-31T04:58:05.776Z,20.29
2022-07-31T05:00:35.149Z,20.36
2022-07-31T05:03:05.901Z,20.42
2022-07-31T05:05:37.862Z,20.46
2022-07-31T05:08:07.268Z,20.43
2022-07-31T05:10:57.648Z,20.33
2022-07-31T05:13:27.076Z,20.41
2022-07-31T05:15:56.883Z,20.46
2022-07-31T05:18:26.304Z,20.57
2022-07-31T05:21:17.435Z,20.54
2022-07-31T05:24:05.002Z,20.60
2022-07-31T05:26:46.230Z,20.63
2022-07-31T05:29:15.540Z,20.55
2022-07-31T05:32:00.265Z,20.57
2022-07-31T05:34:32.000Z,20.60
2022-07-31T05:37:04.529Z,20.61
2022-07-31T05:39:35.656Z,20.58
2022-07-31T05:42:23.625Z,20.61
2022-07-31T05:45:01.979Z,20.64
2022-07-31T05:47:40.067Z,20.77
2022-07-31T05:50:10.763Z,20.91
2022-07-31T05:52:43.193Z,20.96
2022-07-31T05:55:23.482Z,20.93
2022-07-31T05:58:16.862Z,20.96
2022-07-31T06:00:47.306Z,20.97
2022-07-31T06:03:16.826Z,20.96
2022-07-31T06:05:55.808Z,20.94
2022-07-31T06:08:29.198Z,20.95
2022-07-31T06:10:59.272Z,21.05
2022-07-31T06:13:30.271Z,21.14
2022-07-31T06:16:14.056Z,21.23
2022-07-31T06:18:44.250Z,21.32
2022-07-31T06:23:44.778Z,21.66
2022-07-31T06:26:40.826Z,21.79
2022-07-31T06:29:11.555Z,21.92
2022-07-31T06:31:40.930Z,21.96
2022-07-31T06:34:11.669Z,22.07
2022-07-31T06:36:43.954Z,22.26
2022-07-31T06:39:20.019Z,22.54
2022-07-31T06:42:25.497Z,22.81
2022-07-31T06:45:48.533Z,23.09
2022-07-31T06:48:42.643Z,23.31
2022-07-31T06:51:30.292Z,23.38
2022-07-31T06:54:00.270Z,23.39
2022-07-31T06:56:32.301Z,23.42
2022-07-31T06:59:01.717Z,23.40
2022-07-31T07:01:31.675Z,23.23
2022-07-31T07:04:01.038Z,23.24
2022-07-31T07:06:30.538Z,23.33
2022-07-31T07:09:01.063Z,23.35
2022-07-31T07:11:35.500Z,23.40
2022-07-31T07:14:04.936Z,23.40
2022-07-31T07:16:34.259Z,23.39
2022-07-31T07:19:03.608Z,23.39
2022-07-31T07:21:32.912Z,23.46
2022-07-31T07:24:02.415Z,23.58
2022-07-31T07:26:54.580Z,23.79
2022-07-31T07:29:24.559Z,23.86
2022-07-31T07:31:54.712Z,23.97
2022-07-31T07:34:24.519Z,24.15
2022-07-31T07:36:53.923Z,24.26
2022-07-31T07:39:26.350Z,24.43
2022-07-31T07:41:58.319Z,24.44
2022-07-31T07:44:29.589Z,24.56
2022-07-31T07:46:58.944Z,24.68
2022-07-31T07:49:30.422Z,24.68
2022-07-31T07:52:20.082Z,24.78
2022-07-31T07:55:18.203Z,24.76
2022-07-31T07:58:12.196Z,24.76
2022-07-31T08:01:00.373Z,24.98
2022-07-31T08:03:48.262Z,25.19
2022-07-31T08:06:19.236Z,25.41
2022-07-31T08:08:48.582Z,25.75
2022-07-31T08:11:46.805Z,25.96
2022-07-31T08:14:27.351Z,26.16
2022-07-31T08:17:19.458Z,26.43
2022-07-31T08:19:51.400Z,26.48
2022-07-31T08:22:21.622Z,26.51
2022-07-31T08:24:51.019Z,26.58
2022-07-31T08:27:39.604Z,26.57
2022-07-31T08:30:13.743Z,26.61
2022-07-31T08:32:43.093Z,26.82
2022-07-31T08:35:12.523Z,26.95
2022-07-31T08:37:57.525Z,27.16
2022-07-31T08:40:42.710Z,27.26
2022-07-31T08:44:00.863Z,27.44
2022-07-31T08:46:08.044Z,27.57
2022-07-31T08:48:42.694Z,27.77
2022-07-31T08:51:14.138Z,27.95
2022-07-31T08:54:02.098Z,28.05
2022-07-31T08:56:31.509Z,28.11
2022-07-31T08:59:03.293Z,28.05
2022-07-31T09:01:35.614Z,28.00
2022-07-31T09:04:05.644Z,27.86
2022-07-31T09:06:37.644Z,27.84
2022-07-31T09:09:08.065Z,27.75
2022-07-31T09:11:51.243Z,27.76
2022-07-31T09:14:40.609Z,27.89
2022-07-31T09:17:15.857Z,27.86
2022-07-31T09:19:52.719Z,27.78
2022-07-31T09:22:32.092Z,27.88
2022-07-31T09:25:12.204Z,27.93
2022-07-31T09:27:42.350Z,28.08
2022-07-31T09:30:13.002Z,28.09
2022-07-31T09:32:57.406Z,28.07
2022-07-31T09:35:50.674Z,28.15
2022-07-31T09:38:20.647Z,28.31
2022-07-31T09:41:26.814Z,28.38
2022-07-31T09:44:10.008Z,28.53
2022-07-31T09:46:44.557Z,28.70
2022-07-31T09:49:16.631Z,28.94
2022-07-31T09:51:49.805Z,29.07
2022-07-31T09:54:23.845Z,28.91
2022-07-31T09:57:12.484Z,28.77
2022-07-31T09:59:47.987Z,28.82
2022-07-31T10:02:18.715Z,28.88
2022-07-31T10:04:53.346Z,28.89
2022-07-31T10:07:32.623Z,28.92
2022-07-31T10:10:13.065Z,28.90
2022-07-31T10:12:56.956Z,29.00
2022-07-31T10:15:29.008Z,28.82
2022-07-31T10:18:18.502Z,28.82
2022-07-31T10:21:28.388Z,28.87
2022-07-31T10:24:12.633Z,29.01
2022-07-31T10:27:00.826Z,29.10
2022-07-31T10:29:34.970Z,28.98
2022-07-31T10:32:08.071Z,28.85
2022-07-31T10:34:41.262Z,28.77
2022-07-31T10:37:16.164Z,28.56
2022-07-31T10:40:09.512Z,28.64
2022-07-31T10:42:46.550Z,28.83
2022-07-31T10:45:17.510Z,29.04
2022-07-31T10:47:58.603Z,29.30
2022-07-31T10:50:46.631Z,29.43
2022-07-31T10:53:50.258Z,29.68
2022-07-31T10:56:43.394Z,29.73
2022-07-31T10:59:32.984Z,29.77
2022-07-31T11:02:29.881Z,29.82
2022-07-31T11:05:14.117Z,29.83
2022-07-31T11:08:21.580Z,29.89
2022-07-31T11:11:03.580Z,30.07
2022-07-31T11:13:55.418Z,30.05
2022-07-31T11:16:52.322Z,30.02
2022-07-31T11:19:41.371Z,30.06
2022-07-31T11:22:31.789Z,30.17
2022-07-31T11:25:02.641Z,30.16
2022-07-31T11:27:34.983Z,30.29
2022-07-31T11:30:13.169Z,30.34
2022-07-31T11:32:42.937Z,30.32
2022-07-31T11:35:12.229Z,30.19
2022-07-31T11:37:46.084Z,30.09
2022-07-31T11:40:16.355Z,30.09
2022-07-31T11:43:04.704Z,30.18
2022-07-31T11:45:48.249Z,30.30
2022-07-31T11:48:19.255Z,30.26
2022-07-31T11:50:49.177Z,30.39
2022-07-31T11:53:19.211Z,30.41
2022-07-31T11:55:52.638Z,30.44
2022-07-31T11:58:25.748Z,30.61
2022-07-31T12:00:55.951Z,30.74
2022-07-31T12:03:27.676Z,30.46
2022-07-31T12:05:57.094Z,30.50
2022-07-31T12:08:27.511Z,30.29
2022-07-31T12:11:00.069Z,30.30
2022-07-31T12:13:32.791Z,30.20
2022-07-31T12:16:03.257Z,30.05
2022-07-31T12:18:33.498Z,29.92
2022-07-31T12:21:03.790Z,29.91
2022-07-31T12:23:42.149Z,29.90
2022-07-31T12:26:13.468Z,29.97
2022-07-31T12:28:45.492Z,30.00
2022-07-31T12:31:14.840Z,30.08
2022-07-31T12:33:45.715Z,30.31
2022-07-31T12:36:16.257Z,30.65
2022-07-31T12:38:48.981Z,30.79
2022-07-31T12:41:19.116Z,31.00
2022-07-31T12:43:52.721Z,30.82
2022-07-31T12:46:23.335Z,30.69
2022-07-31T12:48:53.072Z,30.82
2022-07-31T12:51:45.439Z,30.94
2022-07-31T12:54:12.291Z,31.03
2022-07-31T12:56:42.414Z,31.13
2022-07-31T12:59:14.707Z,31.08
2022-07-31T16:03:51.135Z,32.30
2022-07-31T16:06:28.185Z,32.39
2022-07-31T16:09:01.460Z,32.55
2022-07-31T16:12:03.757Z,32.56
2022-07-31T16:14:20.093Z,32.63
2022-07-31T16:16:49.420Z,32.49
2022-07-31T16:19:25.132Z,32.61
2022-07-31T16:21:55.239Z,32.61
2022-07-31T16:24:25.123Z,32.39
2022-07-31T16:26:54.463Z,32.38
2022-07-31T16:29:57.753Z,32.35
2022-07-31T16:32:14.332Z,32.44
2022-07-31T16:34:51.661Z,32.49
2022-07-31T16:37:22.037Z,32.69
2022-07-31T16:40:28.175Z,32.74
2022-07-31T16:43:00.949Z,32.86
2022-07-31T16:45:30.865Z,32.88
2022-07-31T16:48:00.486Z,32.73
2022-07-31T16:50:32.513Z,32.61
2022-07-31T16:53:01.812Z,32.66
2022-07-31T16:55:46.134Z,32.75
2022-07-31T16:58:24.810Z,32.97
2022-07-31T17:00:54.397Z,32.93
2022-07-31T17:03:59.342Z,32.99
2022-07-31T17:06:16.711Z,33.17
2022-07-31T17:08:46.391Z,33.22
2022-07-31T17:11:15.717Z,33.21
2022-07-31T17:13:45.086Z,33.21
2022-07-31T17:16:14.376Z,32.97
2022-07-31T17:18:43.673Z,32.93
2022-07-31T17:21:25.726Z,32.97
2022-07-31T17:24:00.249Z,33.08
2022-07-31T17:26:29.608Z,33.22
2022-07-31T17:28:58.892Z,33.32
2022-07-31T17:31:28.225Z,33.46
2022-07-31T17:33:59.961Z,33.55
2022-07-31T17:36:34.009Z,33.41
2022-07-31T17:39:03.358Z,33.48
2022-07-31T17:41:32.707Z,33.63
2022-07-31T17:44:02.106Z,33.77
2022-07-31T17:46:36.267Z,33.69
2022-07-31T17:49:08.310Z,33.81
2022-07-31T17:51:40.329Z,33.83
2022-07-31T17:54:28.985Z,34.05
2022-07-31T17:56:58.430Z,34.29
2022-07-31T17:59:27.756Z,34.17
2022-07-31T18:02:00.560Z,33.93
2022-07-31T18:04:30.488Z,33.25
2022-07-31T18:07:04.339Z,32.91
2022-07-31T18:09:35.206Z,32.37
2022-07-31T18:12:06.034Z,31.69
2022-07-31T18:14:35.576Z,31.08
2022-07-31T18:17:04.972Z,30.69
2022-07-31T18:19:34.288Z,30.32
2022-07-31T18:22:06.574Z,30.02
2022-07-31T18:24:36.201Z,29.81
2022-07-31T18:27:05.602Z,29.77
2022-07-31T18:29:34.952Z,29.49
2022-07-31T18:32:04.578Z,29.25
2022-07-31T18:34:34.040Z,29.05
2022-07-31T18:37:05.954Z,28.91
2022-07-31T18:39:48.756Z,28.82
2022-07-31T18:42:18.875Z,28.75
2022-07-31T18:44:48.273Z,28.65
2022-07-31T18:47:17.627Z,28.58
2022-07-31T18:50:59.456Z,28.45
2022-07-31T18:52:41.300Z,28.41
2022-07-31T18:55:11.404Z,28.28
2022-07-31T18:57:40.733Z,28.17
2022-07-31T19:00:11.191Z,28.08
2022-07-31T19:02:40.558Z,27.97
2022-07-31T19:05:13.619Z,27.86
2022-07-31T19:07:53.523Z,27.81
2022-07-31T19:10:31.744Z,27.80
2022-07-31T19:13:01.901Z,27.76
2022-07-31T19:15:31.219Z,27.72
2022-07-31T19:18:02.962Z,27.61
2022-07-31T19:20:58.925Z,27.57
2022-07-31T19:23:35.077Z,27.52
2022-07-31T19:26:04.885Z,27.48
2022-07-31T19:28:34.282Z,27.46
2022-07-31T19:31:03.621Z,27.45
2022-07-31T19:33:32.996Z,27.40
2022-07-31T19:36:03.378Z,27.33
2022-07-31T19:38:36.022Z,27.24
2022-07-31T19:41:05.478Z,27.17
2022-07-31T19:43:35.822Z,27.15
2022-07-31T19:46:11.204Z,27.07
2022-07-31T19:48:41.655Z,26.96
2022-07-31T19:51:11.261Z,26.88
2022-07-31T19:53:43.321Z,26.83
2022-07-31T19:56:19.728Z,26.81
2022-07-31T19:58:50.507Z,26.73
2022-07-31T20:01:20.582Z,26.67
2022-07-31T20:03:50.453Z,26.60
2022-07-31T20:06:19.835Z,26.55
2022-07-31T20:08:51.801Z,26.52
2022-07-31T20:11:21.182Z,26.48
2022-07-31T20:13:50.555Z,26.36
2022-07-31T20:16:20.019Z,26.32
2022-07-31T20:18:49.834Z,26.23
2022-07-31T20:21:19.287Z,26.15
2022-07-31T20:23:48.918Z,26.12
2022-07-31T20:26:21.721Z,26.09
2022-07-31T20:28:51.051Z,26.00
2022-07-31T20:31:21.578Z,25.96
2022-07-31T20:33:57.384Z,25.95
2022-07-31T20:36:27.343Z,25.90
2022-07-31T20:38:58.682Z,25.89
2022-07-31T20:41:30.731Z,25.78
2022-07-31T20:44:00.435Z,25.79
2022-07-31T20:46:30.361Z,25.73
2022-07-31T20:49:00.663Z,25.73
2022-07-31T20:51:30.086Z,25.68
2022-07-31T20:53:59.496Z,25.62
2022-07-31T20:56:32.181Z,25.62
2022-07-31T20:59:01.504Z,25.62
2022-07-31T21:01:30.867Z,25.50
2022-07-31T21:04:01.745Z,25.50
2022-07-31T21:06:32.575Z,25.49
2022-07-31T21:09:04.606Z,25.47
2022-07-31T21:11:36.821Z,25.44
2022-07-31T21:14:06.193Z,25.40
2022-07-31T21:16:35.508Z,25.26
2022-07-31T21:19:04.874Z,25.19
2022-07-31T21:21:34.191Z,25.15
2022-07-31T21:24:03.803Z,25.12
2022-07-31T21:26:36.772Z,25.09
2022-07-31T21:29:09.069Z,25.05
2022-07-31T21:31:38.810Z,24.98
2022-07-31T21:34:18.827Z,24.96
2022-07-31T21:36:50.304Z,24.95
2022-07-31T21:39:20.415Z,24.93
2022-07-31T21:41:52.744Z,24.89
2022-07-31T21:44:22.466Z,24.83
2022-07-31T21:46:57.468Z,24.79
2022-07-31T21:49:34.274Z,24.72
2022-07-31T21:52:04.232Z,24.69
2022-07-31T21:54:33.801Z,24.65
2022-07-31T21:57:05.841Z,24.62
2022-07-31T21:59:35.191Z,24.58
2022-07-31T22:02:04.620Z,24.52
2022-07-31T22:04:34.858Z,24.50
2022-07-31T22:07:16.682Z,24.40
2022-07-31T22:09:45.982Z,24.40
2022-07-31T22:12:17.888Z,24.39
2022-07-31T22:17:24.294Z,24.33
2022-07-31T22:20:01.185Z,24.25
2022-07-31T22:22:31.144Z,24.15
2022-07-31T22:25:00.783Z,24.13
2022-07-31T22:27:45.444Z,24.14
2022-07-31T22:30:16.093Z,24.08
2022-07-31T22:32:47.610Z,24.01
2022-07-31T22:35:20.049Z,23.97
2022-07-31T22:37:52.850Z,23.94
2022-07-31T22:40:23.146Z,23.87
2022-07-31T22:42:57.533Z,23.84
2022-07-31T22:45:27.836Z,23.85
2022-07-31T22:47:57.838Z,23.88
2022-07-31T22:50:27.620Z,23.90
2022-07-31T22:52:57.373Z,23.92
2022-07-31T22:55:26.931Z,23.96
2022-07-31T22:57:58.985Z,23.92
2022-07-31T23:00:28.408Z,23.82
2022-07-31T23:02:57.872Z,23.75
2022-07-31T23:05:27.361Z,23.70
2022-07-31T23:07:56.717Z,23.71
2022-07-31T23:10:26.150Z,23.68
2022-07-31T23:12:55.511Z,23.68
2022-07-31T23:15:27.481Z,23.72
2022-07-31T23:17:57.015Z,23.75
2022-07-31T23:20:26.375Z,23.76
2022-07-31T23:22:55.750Z,23.71
2022-07-31T23:25:25.127Z,23.68
2022-07-31T23:27:54.457Z,23.60
2022-07-31T23:30:24.375Z,23.56
2022-07-31T23:32:56.363Z,23.52
2022-07-31T23:35:25.685Z,23.52
2022-07-31T23:37:54.973Z,23.45
2022-07-31T23:40:24.408Z,23.41
2022-07-31T23:42:51.119Z,23.41
2022-07-31T23:45:20.515Z,23.38
2022-07-31T23:47:50.945Z,23.30
2022-07-31T23:50:22.967Z,23.19
2022-07-31T23:52:52.447Z,23.21
2022-07-31T23:55:21.892Z,23.27
2022-07-31T23:57:53.624Z,23.23
